createdAt,value
2023-01-19T00:01:49.921Z,15.83
2023-01-19T00:06:52.007Z,15.78
2023-01-19T00:11:52.863Z,15.70
2023-01-19T00:16:54.181Z,15.91
2023-01-19T00:21:56.361Z,15.79
2023-01-19T00:26:59.222Z,16.03
2023-01-19T00:31:59.684Z,15.98
2023-01-19T00:37:03.161Z,15.90
2023-01-19T00:42:26.946Z,15.94
2023-01-19T00:47:27.210Z,15.92
2023-01-19T00:52:27.772Z,16.04
2023-01-19T00:57:29.679Z,16.03
2023-01-19T01:02:31.770Z,15.98
2023-01-19T01:07:43.789Z,16.07
2023-01-19T01:12:55.555Z,15.99
2023-01-19T01:18:04.263Z,16.35
2023-01-19T01:23:05.645Z,16.16
2023-01-19T01:28:09.323Z,16.36
2023-01-19T01:33:08.434Z,16.32
2023-01-19T01:38:11.280Z,16.15
2023-01-19T01:43:19.545Z,16.30
2023-01-19T01:48:23.946Z,16.33
2023-01-19T01:53:34.113Z,16.36
2023-01-19T01:58:37.134Z,16.30
2023-01-19T02:03:35.843Z,16.08
2023-01-19T02:09:18.797Z,16.17
2023-01-19T02:14:16.743Z,16.09
2023-01-19T02:19:24.765Z,16.08
2023-01-19T02:24:26.592Z,15.93
2023-01-19T02:29:28.593Z,16.04
2023-01-19T02:34:34.395Z,16.00
2023-01-19T02:39:37.718Z,15.88
2023-01-19T02:44:35.848Z,15.99
2023-01-19T02:49:34.940Z,16.14
2023-01-19T02:55:13.256Z,16.31
2023-01-19T03:00:48.818Z,16.40
2023-01-19T03:05:57.520Z,16.08
2023-01-19T03:11:12.668Z,16.14
2023-01-19T03:16:23.389Z,16.27
2023-01-19T03:21:28.453Z,16.14
2023-01-19T03:26:30.563Z,16.07
2023-01-19T03:31:30.931Z,16.25
2023-01-19T03:36:34.826Z,16.09
2023-01-19T03:41:34.605Z,16.18
2023-01-19T03:46:36.450Z,16.06
2023-01-19T03:51:39.973Z,16.16
2023-01-19T03:56:39.719Z,16.11
2023-01-19T04:01:41.722Z,16.02
2023-01-19T04:06:50.858Z,15.84
2023-01-19T04:11:53.303Z,15.99
2023-01-19T04:16:51.542Z,16.19
2023-01-19T04:21:52.792Z,15.94
2023-01-19T04:26:53.919Z,15.97
2023-01-19T04:31:54.849Z,15.96
2023-01-19T04:37:38.991Z,15.94
2023-01-19T04:42:38.639Z,15.88
2023-01-19T04:47:40.810Z,15.75
2023-01-19T04:52:44.688Z,15.76
2023-01-19T04:57:45.954Z,15.88
2023-01-19T05:02:48.355Z,15.81
2023-01-19T05:07:48.576Z,15.68
2023-01-19T05:12:48.227Z,15.89
2023-01-19T05:17:51.045Z,15.79
2023-01-19T05:23:03.077Z,15.59
2023-01-19T05:28:07.899Z,15.45
2023-01-19T05:33:19.412Z,15.47
2023-01-19T05:38:23.366Z,15.38
2023-01-19T05:43:35.323Z,15.52
2023-01-19T05:48:36.959Z,15.32
2023-01-19T05:53:35.601Z,15.50
2023-01-19T05:58:40.176Z,15.47
2023-01-19T06:03:41.603Z,15.38
2023-01-19T06:08:41.685Z,15.27
2023-01-19T06:13:42.279Z,15.19
2023-01-19T06:18:42.179Z,15.37
2023-01-19T06:23:45.417Z,15.42
2023-01-19T06:28:46.717Z,15.39
2023-01-19T06:33:50.418Z,15.40
2023-01-19T06:38:49.786Z,15.46
2023-01-19T06:43:50.487Z,15.46
2023-01-19T06:48:49.451Z,15.60
2023-01-19T06:53:51.135Z,15.61
2023-01-19T06:58:55.451Z,15.45
2023-01-19T07:03:57.232Z,15.66
2023-01-19T07:08:58.193Z,15.87
2023-01-19T07:14:06.282Z,15.83
2023-01-19T07:19:05.753Z,16.05
2023-01-19T07:24:24.067Z,16.05
2023-01-19T07:29:25.536Z,16.16
2023-01-19T07:34:28.390Z,16.35
2023-01-19T07:39:26.629Z,16.33
2023-01-19T07:44:25.641Z,16.33
2023-01-19T07:49:27.201Z,16.46
2023-01-19T07:54:26.505Z,16.76
2023-01-19T07:59:27.863Z,16.80
2023-01-19T08:04:28.044Z,17.00
2023-01-19T08:09:29.331Z,17.18
2023-01-19T08:14:27.498Z,17.14
2023-01-19T08:19:26.670Z,17.35
2023-01-19T08:24:28.728Z,17.46
2023-01-19T08:29:35.549Z,17.62
2023-01-19T08:34:39.289Z,17.64
2023-01-19T08:39:40.964Z,17.73
2023-01-19T08:44:57.399Z,18.01
2023-01-19T08:50:06.774Z,18.21
2023-01-19T08:55:06.247Z,18.06
2023-01-19T09:00:08.130Z,18.33
2023-01-19T09:05:10.527Z,18.37
2023-01-19T09:10:17.708Z,18.43
2023-01-19T09:15:25.759Z,18.61
2023-01-19T09:20:24.462Z,18.63
2023-01-19T09:25:27.531Z,18.81
2023-01-19T09:30:27.947Z,19.03
2023-01-19T09:35:28.367Z,19.27
2023-01-19T09:40:27.871Z,19.24
2023-01-19T09:45:47.674Z,19.40
2023-01-19T09:50:48.588Z,19.25
2023-01-19T09:55:51.384Z,19.24
2023-01-19T10:01:03.817Z,19.35
2023-01-19T10:06:05.525Z,19.62
2023-01-19T10:11:06.676Z,19.61
2023-01-19T10:16:24.474Z,19.79
2023-01-19T10:21:30.240Z,19.73
2023-01-19T10:26:39.458Z,19.92
2023-01-19T10:31:39.108Z,19.67
2023-01-19T10:36:40.559Z,19.92
2023-01-19T10:41:53.328Z,19.91
2023-01-19T10:46:54.504Z,19.87
2023-01-19T10:51:55.304Z,20.25
2023-01-19T10:57:05.341Z,20.12
2023-01-19T11:02:14.041Z,20.11
2023-01-19T11:07:20.047Z,20.17
2023-01-19T11:12:23.869Z,20.18
2023-01-19T11:17:31.003Z,20.16
2023-01-19T11:22:34.280Z,20.11
2023-01-19T11:27:35.376Z,20.08
2023-01-19T11:32:37.254Z,20.37
2023-01-19T11:37:37.595Z,20.42
2023-01-19T11:42:37.360Z,20.37
2023-01-19T11:47:44.440Z,20.71
2023-01-19T11:52:48.656Z,20.76
2023-01-19T11:57:52.820Z,20.68
2023-01-19T12:03:05.911Z,20.59
2023-01-19T12:08:08.155Z,20.79
2023-01-19T12:13:15.515Z,20.75
2023-01-19T12:18:30.274Z,20.69
2023-01-19T12:23:57.460Z,20.87
2023-01-19T12:29:01.570Z,20.66
2023-01-19T12:34:25.468Z,21.00
2023-01-19T12:39:26.681Z,20.78
2023-01-19T12:44:30.627Z,20.97
2023-01-19T12:49:43.994Z,20.81
2023-01-19T12:54:54.774Z,20.74
2023-01-19T13:00:02.061Z,20.68
2023-01-19T13:05:17.528Z,20.87
2023-01-19T13:10:55.550Z,20.73
2023-01-19T13:15:57.774Z,20.63
2023-01-19T13:21:10.164Z,20.66
2023-01-19T13:26:17.991Z,20.79
2023-01-19T13:31:21.385Z,20.60
2023-01-19T13:36:26.377Z,20.48
2023-01-19T13:41:43.808Z,20.47
2023-01-19T13:46:43.103Z,20.39
2023-01-19T13:51:43.048Z,20.17
2023-01-19T13:56:51.569Z,20.11
2023-01-19T14:01:51.606Z,20.10
2023-01-19T14:06:55.745Z,19.97
2023-01-19T14:12:07.055Z,20.22
2023-01-19T14:17:29.350Z,19.83
2023-01-19T14:22:44.229Z,19.77
2023-01-19T14:27:42.085Z,19.56
2023-01-19T14:33:07.108Z,19.65
2023-01-19T14:38:11.460Z,19.33
2023-01-19T14:43:12.488Z,19.19
2023-01-19T14:48:31.791Z,18.90
2023-01-19T14:53:43.893Z,19.03
2023-01-19T14:58:46.867Z,18.98
2023-01-19T15:03:48.276Z,18.71
2023-01-19T15:09:14.120Z,18.61
2023-01-19T15:14:18.368Z,18.47
2023-01-19T15:19:21.063Z,18.45
2023-01-19T15:24:21.935Z,18.24
2023-01-19T15:29:25.434Z,18.19
2023-01-19T15:34:24.795Z,18.16
2023-01-19T15:39:32.539Z,18.18
2023-01-19T15:44:32.913Z,18.12
2023-01-19T15:49:34.068Z,17.95
2023-01-19T15:54:34.291Z,17.94
2023-01-19T15:59:34.358Z,17.76
2023-01-19T16:04:35.039Z,17.79
2023-01-19T16:09:35.531Z,17.81
2023-01-19T16:14:34.710Z,17.76
2023-01-19T16:19:32.710Z,17.76
2023-01-19T16:24:34.459Z,17.69
2023-01-19T16:29:34.302Z,17.63
2023-01-19T16:34:34.372Z,17.60
2023-01-19T16:39:34.109Z,17.54
2023-01-19T16:44:34.631Z,17.53
2023-01-19T16:49:38.086Z,17.34
2023-01-19T16:54:39.246Z,17.50
2023-01-19T16:59:40.082Z,17.41
2023-01-19T17:04:37.818Z,17.37
2023-01-19T17:10:07.180Z,17.31
2023-01-19T17:15:06.594Z,17.23
2023-01-19T17:20:06.244Z,17.19
2023-01-19T17:25:05.249Z,17.02
2023-01-19T17:30:04.661Z,17.12
2023-01-19T17:35:04.075Z,17.07
2023-01-19T17:40:09.066Z,17.02
2023-01-19T17:45:08.929Z,17.03
2023-01-19T17:50:56.252Z,16.94
2023-01-19T17:56:22.449Z,16.86
2023-01-19T18:01:28.952Z,16.86
2023-01-19T18:06:35.664Z,16.84
2023-01-19T18:11:42.794Z,16.93
2023-01-19T18:16:43.317Z,16.73
2023-01-19T18:21:48.557Z,16.67
2023-01-19T18:26:50.829Z,16.56
2023-01-19T18:31:52.015Z,16.73
2023-01-19T18:42:58.038Z,16.61
2023-01-19T18:48:15.478Z,16.45
2023-01-19T18:53:35.010Z,16.52
2023-01-19T18:58:52.906Z,16.35
2023-01-19T19:03:54.942Z,16.44
2023-01-19T19:09:00.908Z,16.49
2023-01-19T19:14:11.398Z,16.49
2023-01-19T19:19:16.674Z,16.38
2023-01-19T19:24:16.809Z,16.49
2023-01-19T19:29:44.274Z,16.16
2023-01-19T19:34:56.817Z,15.95
2023-01-19T19:39:57.978Z,15.90
2023-01-19T19:45:00.393Z,15.88
2023-01-19T19:50:05.968Z,15.53
2023-01-19T19:55:15.311Z,15.67
2023-01-19T20:00:16.614Z,15.55
2023-01-19T20:05:30.849Z,15.48
2023-01-19T20:10:40.599Z,15.23
2023-01-19T20:15:49.566Z,14.89
2023-01-19T20:20:50.668Z,14.76
2023-01-19T20:25:53.536Z,14.46
2023-01-19T20:30:55.465Z,14.17
2023-01-19T20:35:57.688Z,14.03
2023-01-19T20:41:01.776Z,13.77
2023-01-19T20:46:01.718Z,13.83
2023-01-19T20:51:21.024Z,13.21
2023-01-19T20:56:20.967Z,13.35
2023-01-19T21:01:25.231Z,13.42
2023-01-19T21:06:26.647Z,13.49
2023-01-19T21:11:31.567Z,13.02
2023-01-19T21:16:39.778Z,12.88
2023-01-19T21:21:39.073Z,12.82
2023-01-19T21:26:57.850Z,12.14
2023-01-19T21:32:01.709Z,12.84
2023-01-19T21:37:03.565Z,12.59
2023-01-19T21:42:03.190Z,12.42
2023-01-19T21:47:18.145Z,12.44
2023-01-19T21:52:23.632Z,12.68
2023-01-19T21:57:36.423Z,12.97
2023-01-19T22:02:39.931Z,13.05
2023-01-19T22:07:41.785Z,13.08
2023-01-19T22:12:45.046Z,13.10
2023-01-19T22:17:54.275Z,13.01
2023-01-19T22:23:17.326Z,12.75
2023-01-19T22:28:21.084Z,12.90
2023-01-19T22:33:31.734Z,12.83
2023-01-19T22:38:53.442Z,12.61
2023-01-19T22:43:56.918Z,12.74
2023-01-19T22:48:59.597Z,12.76
2023-01-19T22:54:01.439Z,12.92
2023-01-19T22:59:00.950Z,12.47
2023-01-19T23:04:04.987Z,12.53
2023-01-19T23:09:07.700Z,12.50
2023-01-19T23:14:13.519Z,12.42
2023-01-19T23:19:19.043Z,12.12
2023-01-19T23:24:24.697Z,11.94
2023-01-19T23:29:29.493Z,12.04
2023-01-19T23:34:30.562Z,12.00
2023-01-19T23:39:29.457Z,11.47
2023-01-19T23:44:29.660Z,11.55
2023-01-19T23:49:29.035Z,11.36
2023-01-19T23:54:31.898Z,11.20
2023-01-19T23:59:33.208Z,11.55
